Time;durP1;ratioP1;P1;durP2;ratioP2;P2;SDS_P1;SDS_P2;PMS_P1;PMS_P2;Temp;Humidity;BMP_temperature;BMP_pressure;BME280_temperature;BME280_humidity;BME280_pressure;Samples;Min_cycle;Max_cycle;Signal;HPM_P1;HPM_P2
2021/05/08 00:01:36;;;;;;;5.85;3.20;;;;;;;4.14;95.78;100957.47;5023674;28;20064;-74
2021/05/08 00:04:04;;;;;;;6.47;3.75;;;;;;;4.03;97.17;100951.69;5005783;28;20041;-73
2021/05/08 00:06:33;;;;;;;5.13;3.03;;;;;;;3.92;97.80;100954.59;5031332;28;21032;-74
2021/05/08 00:09:04;;;;;;;5.45;3.25;;;;;;;3.94;97.63;100955.41;5021494;28;20065;-73
2021/05/08 00:11:31;;;;;;;5.07;3.15;;;;;;;3.75;98.09;100956.78;5007389;28;20079;-74
2021/05/08 00:13:58;;;;;;;6.35;3.50;;;;;;;3.73;98.55;100951.59;5022135;28;20420;-75
2021/05/08 00:16:25;;;;;;;4.72;3.38;;;;;;;3.93;98.49;100952.84;5027900;28;20058;-73
2021/05/08 00:18:52;;;;;;;5.43;3.42;;;;;;;3.87;97.65;100948.63;5003266;28;20049;-75
2021/05/08 00:21:19;;;;;;;12.38;3.97;;;;;;;3.72;98.93;100955.09;5009438;28;20077;-73
2021/05/08 00:23:45;;;;;;;6.88;3.55;;;;;;;3.84;99.26;100955.69;5017596;28;20092;-75
2021/05/08 00:26:12;;;;;;;6.68;3.20;;;;;;;4.03;97.35;100960.38;5027945;28;20054;-73
2021/05/08 00:28:39;;;;;;;6.57;3.50;;;;;;;3.87;97.90;100963.41;5026328;28;20053;-75
2021/05/08 00:31:06;;;;;;;4.95;3.45;;;;;;;3.71;98.69;100962.94;5024589;28;20137;-74
2021/05/08 00:33:32;;;;;;;9.65;3.95;;;;;;;3.71;99.16;100961.19;5018914;28;20621;-75
2021/05/08 00:35:59;;;;;;;6.18;3.42;;;;;;;3.76;99.02;100966.28;5026759;28;20443;-74
2021/05/08 00:38:26;;;;;;;7.18;3.80;;;;;;;3.82;98.61;100966.13;5024321;28;20051;-75
2021/05/08 00:40:52;;;;;;;5.50;3.50;;;;;;;3.90;97.89;100968.53;5017745;28;20065;-74
2021/05/08 00:43:19;;;;;;;6.05;3.42;;;;;;;3.90;97.03;100969.41;5025409;28;20067;-74
2021/05/08 00:45:46;;;;;;;6.25;3.20;;;;;;;3.88;97.28;100962.53;5007918;28;20025;-72
2021/05/08 00:48:13;;;;;;;4.53;3.42;;;;;;;3.80;97.40;100970.53;5033886;28;20180;-74
2021/05/08 00:50:41;;;;;;;4.68;3.40;;;;;;;3.76;97.89;100963.69;5046327;28;20132;-73
2021/05/08 00:53:09;;;;;;;9.75;3.78;;;;;;;3.67;97.85;100959.56;5045327;28;20136;-75
2021/05/08 00:55:39;;;;;;;6.80;3.88;;;;;;;3.77;98.46;100952.38;5027461;28;20045;-75
2021/05/08 00:58:07;;;;;;;4.78;3.45;;;;;;;3.69;98.66;100954.31;5008080;28;20099;-75
2021/05/08 01:00:35;;;;;;;6.55;4.00;;;;;;;3.54;99.17;100950.34;5015300;28;20050;-75
2021/05/08 01:03:01;;;;;;;7.40;3.88;;;;;;;3.66;98.78;100957.00;5024130;28;20063;-74
2021/05/08 01:05:32;;;;;;;8.07;3.50;;;;;;;3.67;99.15;100958.72;5023425;28;20077;-75
2021/05/08 01:08:00;;;;;;;5.10;3.20;;;;;;;3.65;99.29;100961.38;5007942;28;20044;-79
2021/05/08 01:10:29;;;;;;;6.50;3.30;;;;;;;3.60;99.25;100965.81;5019900;28;20045;-73
2021/05/08 01:12:57;;;;;;;7.03;4.15;;;;;;;3.54;100.00;100969.41;5020018;28;20108;-73
2021/05/08 01:15:24;;;;;;;5.05;3.72;;;;;;;3.67;100.00;100967.38;5046785;28;20101;-72
2021/05/08 01:17:51;;;;;;;5.68;3.72;;;;;;;3.64;99.78;100974.41;5048322;28;20058;-73
2021/05/08 01:20:19;;;;;;;11.80;4.00;;;;;;;3.83;98.82;100972.19;5030194;28;20091;-72
2021/05/08 01:22:46;;;;;;;6.80;3.92;;;;;;;3.78;99.11;100978.41;5020624;28;20568;-73
2021/05/08 01:25:16;;;;;;;6.05;4.15;;;;;;;3.72;98.84;100968.13;5003672;28;20053;-73
2021/05/08 01:27:47;;;;;;;8.95;4.25;;;;;;;3.63;98.43;100968.34;5021889;28;20053;-74
2021/05/08 01:30:20;;;;;;;10.00;4.20;;;;;;;3.59;99.43;100977.13;5021684;28;20054;-74
2021/05/08 01:32:46;;;;;;;6.95;4.28;;;;;;;3.47;99.39;100975.69;5000176;28;20045;-74
2021/05/08 01:35:13;;;;;;;6.53;4.78;;;;;;;3.44;99.61;100970.53;5033795;28;20120;-73
2021/05/08 01:37:40;;;;;;;6.65;4.10;;;;;;;3.31;100.00;100969.13;5003498;28;20049;-73
2021/05/08 01:40:11;;;;;;;5.75;3.95;;;;;;;3.35;100.00;100970.75;4999713;28;20062;-75
2021/05/08 01:42:39;;;;;;;6.47;4.25;;;;;;;3.49;100.00;100973.88;5026147;28;20050;-73
2021/05/08 01:45:14;;;;;;;6.40;4.15;;;;;;;3.45;100.00;100980.06;5004614;28;20065;-76
2021/05/08 01:47:41;;;;;;;8.38;5.13;;;;;;;3.35;100.00;100981.19;5019014;28;20137;-75
2021/05/08 01:50:19;;;;;;;10.65;5.10;;;;;;;3.42;100.00;100984.47;5004918;28;20129;-73
2021/05/08 01:52:46;;;;;;;6.75;4.22;;;;;;;3.39;100.00;100988.03;5024154;28;20647;-73
2021/05/08 01:55:15;;;;;;;9.23;4.25;;;;;;;3.49;99.36;100980.84;5025632;28;20045;-75
2021/05/08 01:57:53;;;;;;;6.68;4.47;;;;;;;3.40;99.48;100978.47;5007156;28;20160;-74
2021/05/08 02:00:24;;;;;;;7.32;4.35;;;;;;;3.33;99.92;100982.09;5001105;28;20396;-75
2021/05/08 02:02:52;;;;;;;8.45;4.53;;;;;;;3.19;100.00;100979.81;5027352;28;20042;-74
2021/05/08 02:05:20;;;;;;;6.60;4.05;;;;;;;3.27;99.74;100983.94;5002674;28;20516;-76
2021/05/08 02:07:51;;;;;;;13.00;4.85;;;;;;;3.38;99.78;100982.84;5019159;28;20132;-74
2021/05/08 02:10:18;;;;;;;8.20;4.68;;;;;;;3.35;99.29;100991.59;5018468;28;20591;-75
2021/05/08 02:12:44;;;;;;;5.43;4.40;;;;;;;3.45;99.98;100980.06;5014542;28;20148;-74
2021/05/08 02:15:15;;;;;;;8.80;4.45;;;;;;;3.34;99.70;100989.88;5003189;28;20052;-74
2021/05/08 02:17:42;;;;;;;11.25;5.38;;;;;;;3.11;100.00;100984.31;5020929;28;20123;-75
2021/05/08 02:20:23;;;;;;;6.18;4.43;;;;;;;3.28;100.00;100988.25;5022620;28;20045;-73
2021/05/08 02:22:50;;;;;;;6.95;4.60;;;;;;;3.10;100.00;100988.66;5020184;28;20054;-74
2021/05/08 02:25:17;;;;;;;6.63;4.65;;;;;;;3.16;100.00;100992.91;5001678;28;20063;-74
2021/05/08 02:27:44;;;;;;;7.10;4.90;;;;;;;3.13;100.00;100987.75;5018044;28;20221;-73
2021/05/08 02:30:13;;;;;;;7.93;4.72;;;;;;;3.09;100.00;100980.91;5018838;28;20081;-75
2021/05/08 02:32:40;;;;;;;7.95;5.05;;;;;;;3.21;100.00;100980.66;5013351;28;20055;-73
2021/05/08 02:35:09;;;;;;;9.00;5.30;;;;;;;3.13;99.95;100982.56;5020390;28;20072;-74
2021/05/08 02:37:36;;;;;;;11.32;5.00;;;;;;;3.09;100.00;100976.56;5025262;28;20047;-75
2021/05/08 02:40:05;;;;;;;7.45;4.43;;;;;;;3.21;100.00;100984.09;5003948;28;20053;-74
2021/05/08 02:42:32;;;;;;;5.53;4.25;;;;;;;3.49;100.00;100986.06;5015665;28;20085;-74
2021/05/08 02:44:59;;;;;;;10.05;4.47;;;;;;;3.48;99.24;100989.56;5004227;28;20141;-72
2021/05/08 02:47:26;;;;;;;5.70;4.25;;;;;;;3.42;99.53;100989.69;5017479;28;20706;-74
2021/05/08 02:49:55;;;;;;;8.10;4.32;;;;;;;3.38;99.51;100988.03;5008922;28;20537;-73
2021/05/08 02:52:22;;;;;;;7.85;4.45;;;;;;;3.28;99.90;100996.06;5025535;28;20138;-74
2021/05/08 02:54:50;;;;;;;7.18;4.68;;;;;;;3.28;99.64;100995.19;5025899;28;20125;-76
2021/05/08 02:57:17;;;;;;;11.13;4.75;;;;;;;3.17;100.00;100994.59;5007410;28;20132;-75
2021/05/08 02:59:44;;;;;;;6.43;4.07;;;;;;;3.21;100.00;100993.66;5022636;28;20057;-75
2021/05/08 03:02:10;;;;;;;9.02;4.75;;;;;;;3.21;99.46;101001.47;5009760;28;20546;-74
2021/05/08 03:04:37;;;;;;;6.75;4.90;;;;;;;3.17;100.00;100999.81;5028627;28;20056;-74
2021/05/08 03:07:04;;;;;;;9.05;4.18;;;;;;;3.28;99.95;100996.06;5016493;28;20045;-76
2021/05/08 03:09:31;;;;;;;9.25;5.38;;;;;;;3.32;99.33;101001.19;5004528;28;20060;-75
2021/05/08 03:12:00;;;;;;;8.30;5.00;;;;;;;3.16;99.06;101003.31;5008097;28;20403;-75
2021/05/08 03:14:26;;;;;;;8.90;4.68;;;;;;;3.15;99.54;101005.06;5006373;28;20132;-74
2021/05/08 03:17:04;;;;;;;8.70;5.50;;;;;;;3.14;99.59;101002.47;5017680;28;20069;-73
2021/05/08 03:19:35;;;;;;;7.70;4.82;;;;;;;3.28;99.84;101000.41;5019203;28;20069;-77
2021/05/08 03:22:03;;;;;;;6.65;4.20;;;;;;;3.21;99.23;101001.47;5011543;28;20066;-76
2021/05/08 03:24:31;;;;;;;9.55;4.75;;;;;;;3.19;98.97;101009.28;5028578;28;20156;-75
2021/05/08 03:26:58;;;;;;;7.57;4.20;;;;;;;3.19;98.75;101011.03;5027747;28;20140;-77
2021/05/08 03:29:25;;;;;;;9.07;5.35;;;;;;;3.01;98.91;101014.88;5001861;28;20076;-77
2021/05/08 03:31:52;;;;;;;7.78;4.40;;;;;;;3.25;98.60;101003.94;5029103;28;20049;-77
2021/05/08 03:34:19;;;;;;;22.15;5.20;;;;;;;3.20;98.25;101011.00;5008091;28;20141;-76
2021/05/08 03:36:46;;;;;;;15.75;5.28;;;;;;;3.12;98.99;101010.31;5020035;28;20566;-76
2021/05/08 03:39:13;;;;;;;11.52;4.97;;;;;;;3.41;99.25;101017.44;5008249;28;20054;-75
2021/05/08 03:41:39;;;;;;;8.52;4.25;;;;;;;3.47;97.82;101025.13;5018383;28;20594;-75
2021/05/08 03:44:06;;;;;;;6.93;4.25;;;;;;;3.40;97.20;101020.09;5001277;28;20084;-75
2021/05/08 03:46:33;;;;;;;6.55;3.90;;;;;;;3.38;97.24;101014.06;5025662;28;20048;-76
2021/05/08 03:49:00;;;;;;;9.23;4.32;;;;;;;3.42;97.22;101018.31;5012489;28;20096;-76
2021/05/08 03:51:28;;;;;;;6.03;3.50;;;;;;;3.43;97.10;101023.50;5010326;28;20137;-76
2021/05/08 03:53:55;;;;;;;10.38;4.00;;;;;;;3.40;96.37;101025.31;4998104;28;20061;-75
2021/05/08 03:56:22;;;;;;;20.80;4.63;;;;;;;3.59;96.17;101026.59;5010104;28;20057;-74
2021/05/08 03:58:49;;;;;;;8.70;4.03;;;;;;;3.60;96.00;101033.50;5017647;28;20144;-74
2021/05/08 04:01:16;;;;;;;7.15;3.90;;;;;;;3.68;95.12;101038.53;5021127;28;20935;-75
2021/05/08 04:03:43;;;;;;;5.38;3.60;;;;;;;3.69;94.55;101035.03;5027822;28;20533;-74
2021/05/08 04:06:10;;;;;;;7.57;3.85;;;;;;;3.72;94.86;101045.38;5021618;28;20053;-74
2021/05/08 04:08:36;;;;;;;5.03;3.65;;;;;;;3.84;93.09;101044.22;5027112;28;20045;-75
2021/05/08 04:11:03;;;;;;;6.47;3.58;;;;;;;4.00;92.44;101049.00;5006693;28;20109;-75
2021/05/08 04:13:30;;;;;;;5.70;3.35;;;;;;;4.23;91.63;101047.56;5026446;28;20541;-74
2021/05/08 04:15:56;;;;;;;8.13;3.72;;;;;;;4.33;90.86;101051.66;5005212;28;20030;-75
2021/05/08 04:18:23;;;;;;;6.90;3.75;;;;;;;4.69;89.22;101051.56;5019007;28;20053;-76
2021/05/08 04:20:50;;;;;;;9.88;3.65;;;;;;;4.94;87.61;101056.94;5028809;28;20041;-73
2021/05/08 04:23:17;;;;;;;11.73;3.53;;;;;;;5.77;85.07;101052.69;5023345;28;20050;-75
2021/05/08 04:25:44;;;;;;;7.70;3.15;;;;;;;6.75;81.01;101044.94;4999536;28;20139;-76
2021/05/08 04:28:11;;;;;;;10.10;2.80;;;;;;;7.86;76.41;101044.16;5028128;28;20073;-75
2021/05/08 04:30:38;;;;;;;6.10;2.67;;;;;;;8.76;69.63;101052.59;5002655;28;20365;-75
2021/05/08 04:33:20;;;;;;;4.50;2.85;;;;;;;9.46;67.04;101053.78;5002133;28;20056;-73
2021/05/08 04:35:47;;;;;;;3.28;2.05;;;;;;;10.23;63.83;101046.47;5028488;28;20157;-76
2021/05/08 04:38:14;;;;;;;9.32;2.60;;;;;;;11.47;60.03;101042.47;5018646;28;20193;-77
2021/05/08 04:40:41;;;;;;;5.28;2.10;;;;;;;12.08;56.27;101054.84;5027386;28;20079;-75
2021/05/08 04:43:08;;;;;;;5.07;2.00;;;;;;;12.91;53.42;101058.66;4999390;28;20136;-74
2021/05/08 04:45:35;;;;;;;4.00;2.20;;;;;;;13.43;52.30;101052.78;5020090;28;20136;-75
2021/05/08 04:48:02;;;;;;;4.30;2.47;;;;;;;13.80;50.15;101052.19;5028266;28;20098;-76
2021/05/08 04:50:28;;;;;;;4.80;2.05;;;;;;;14.33;48.90;101050.41;5000408;28;20516;-76
2021/05/08 04:52:55;;;;;;;3.03;1.95;;;;;;;14.94;47.03;101051.47;5026732;28;20065;-77
2021/05/08 04:55:22;;;;;;;3.45;1.88;;;;;;;14.87;47.34;101055.53;5026716;28;20064;-79
2021/05/08 04:57:49;;;;;;;6.85;2.30;;;;;;;14.72;46.67;101053.94;5024599;28;20071;-78
2021/05/08 05:00:17;;;;;;;3.15;1.58;;;;;;;15.03;46.61;101056.13;5002903;28;20057;-77
2021/05/08 05:02:45;;;;;;;5.88;1.85;;;;;;;15.61;45.42;101046.66;5036095;28;20053;-79
2021/05/08 05:05:14;;;;;;;5.40;1.98;;;;;;;15.48;44.34;101058.25;5011518;28;20136;-73
2021/05/08 05:07:44;;;;;;;5.32;1.90;;;;;;;13.59;48.41;101052.63;5010817;28;20060;-74
2021/05/08 05:10:12;;;;;;;8.73;2.83;;;;;;;12.07;52.42;101071.63;5010268;28;20045;-73
2021/05/08 05:12:39;;;;;;;4.60;2.20;;;;;;;10.72;57.31;101065.03;5031130;28;20439;-76
2021/05/08 05:15:09;;;;;;;6.45;2.63;;;;;;;9.98;59.94;101073.13;5003423;28;20049;-77
2021/05/08 05:17:36;;;;;;;6.07;2.10;;;;;;;9.89;61.07;101081.47;5007475;28;20076;-77
2021/05/08 05:20:07;;;;;;;8.52;2.40;;;;;;;9.85;62.24;101072.03;5032651;28;20657;-75
2021/05/08 05:22:34;;;;;;;6.93;2.50;;;;;;;9.82;61.47;101077.44;5023039;28;20083;-75
2021/05/08 05:25:02;;;;;;;10.23;2.42;;;;;;;10.11;60.81;101076.84;4997994;28;20484;-76
2021/05/08 05:27:30;;;;;;;7.18;2.70;;;;;;;10.78;58.08;101074.38;5023746;28;20118;-76
2021/05/08 05:29:58;;;;;;;6.57;2.38;;;;;;;10.62;58.88;101077.78;4989155;28;20056;-76
2021/05/08 05:32:24;;;;;;;8.80;2.20;;;;;;;12.39;54.40;101077.66;5025425;28;20057;-73
2021/05/08 05:34:52;;;;;;;7.88;2.65;;;;;;;13.55;50.45;101080.22;5011174;28;20187;-76
2021/05/08 05:37:18;;;;;;;11.70;2.33;;;;;;;14.32;48.52;101075.16;5032626;28;20072;-72
2021/05/08 05:39:46;;;;;;;4.35;2.28;;;;;;;14.86;46.64;101083.84;5044710;28;20478;-72
2021/05/08 05:42:13;;;;;;;8.90;2.47;;;;;;;14.67;46.70;101086.91;5060203;28;20070;-74
2021/05/08 05:44:39;;;;;;;5.93;2.08;;;;;;;13.92;48.07;101091.09;5046477;28;20054;-74
2021/05/08 05:47:20;;;;;;;6.78;1.63;;;;;;;15.15;45.92;101092.41;5022605;28;20480;-75
2021/05/08 05:49:49;;;;;;;5.43;2.10;;;;;;;16.15;43.98;101099.31;5026240;28;20120;-74
2021/05/08 05:52:16;;;;;;;6.15;1.98;;;;;;;17.09;40.86;101098.31;5019112;28;20064;-74
2021/05/08 05:54:44;;;;;;;7.55;1.90;;;;;;;18.88;37.61;101098.72;5007919;28;20049;-74
2021/05/08 05:57:11;;;;;;;6.30;2.38;;;;;;;16.66;40.30;101101.66;5015511;28;20152;-75
2021/05/08 05:59:38;;;;;;;8.18;2.50;;;;;;;15.13;43.81;101104.94;5004518;28;20520;-73
2021/05/08 06:02:05;;;;;;;5.93;2.13;;;;;;;13.70;47.41;101104.84;5009646;28;20128;-74
2021/05/08 06:04:35;;;;;;;7.28;2.67;;;;;;;12.90;49.56;101106.31;5022526;28;20053;-75
2021/05/08 06:07:03;;;;;;;9.80;2.33;;;;;;;12.52;51.75;101111.25;5013859;28;20133;-74
2021/05/08 06:09:30;;;;;;;7.80;2.60;;;;;;;12.15;52.93;101108.97;5009368;28;20045;-75
2021/05/08 06:11:58;;;;;;;14.25;2.53;;;;;;;12.33;52.57;101111.47;5000210;28;20136;-74
2021/05/08 06:14:25;;;;;;;6.60;2.30;;;;;;;12.12;52.79;101114.44;4998627;28;20480;-74
2021/05/08 06:16:55;;;;;;;12.82;2.60;;;;;;;10.96;55.95;101118.19;5025190;28;20046;-75
2021/05/08 06:19:26;;;;;;;9.05;2.50;;;;;;;11.04;56.44;101125.69;5002378;28;20050;-73
2021/05/08 06:21:53;;;;;;;7.65;2.50;;;;;;;11.77;54.12;101118.19;5020110;28;20046;-75
2021/05/08 06:24:20;;;;;;;15.02;2.95;;;;;;;11.97;53.71;101122.38;5016056;28;20069;-75
2021/05/08 06:26:47;;;;;;;11.55;2.75;;;;;;;12.10;53.93;101118.94;5020721;28;20041;-76
2021/05/08 06:29:13;;;;;;;8.75;2.45;;;;;;;12.25;54.10;101116.34;5025930;28;20057;-74
2021/05/08 06:31:40;;;;;;;8.45;3.00;;;;;;;14.36;48.29;101111.97;5032190;28;20044;-75
2021/05/08 06:34:07;;;;;;;16.40;3.05;;;;;;;12.83;50.04;101115.53;5005013;28;20053;-74
2021/05/08 06:36:33;;;;;;;10.35;2.67;;;;;;;13.71;49.36;101108.34;5021700;28;20053;-75
2021/05/08 06:39:00;;;;;;;12.45;3.05;;;;;;;14.57;46.46;101111.50;5020064;28;20049;-74
2021/05/08 06:41:27;;;;;;;10.23;2.70;;;;;;;17.17;40.61;101111.03;5031742;28;20259;-73
2021/05/08 06:43:53;;;;;;;7.78;2.78;;;;;;;16.98;40.02;101116.13;5021809;28;20104;-73
2021/05/08 06:46:20;;;;;;;14.35;4.30;;;;;;;17.06;40.77;101111.84;5015636;28;20136;-75
2021/05/08 06:48:47;;;;;;;15.98;3.05;;;;;;;16.39;41.29;101111.69;5020016;28;20045;-74
2021/05/08 06:51:14;;;;;;;11.10;2.95;;;;;;;17.57;40.27;101111.38;5018582;28;20140;-74
2021/05/08 06:53:43;;;;;;;7.40;2.20;;;;;;;20.57;33.45;101117.38;5020470;28;20037;-74
2021/05/08 06:56:10;;;;;;;11.43;3.38;;;;;;;21.46;31.67;101111.59;5005632;28;20100;-74
2021/05/08 06:58:39;;;;;;;13.32;3.10;;;;;;;22.58;29.96;101109.38;5011602;28;20038;-75
2021/05/08 07:01:07;;;;;;;9.95;2.28;;;;;;;23.53;28.76;101110.25;5021654;28;20165;-75
2021/05/08 07:03:34;;;;;;;6.93;2.15;;;;;;;23.04;28.31;101109.19;5003842;28;20146;-73
2021/05/08 07:06:04;;;;;;;7.32;2.20;;;;;;;21.78;29.59;101112.97;5029408;28;20069;-76
2021/05/08 07:08:31;;;;;;;10.57;2.33;;;;;;;20.93;31.08;101120.25;5027086;28;20080;-74
2021/05/08 07:11:03;;;;;;;6.68;2.35;;;;;;;21.14;31.51;101123.56;5006742;28;20072;-74
2021/05/08 07:13:30;;;;;;;4.10;1.50;;;;;;;21.92;29.57;101107.09;5007336;28;20658;-74
2021/05/08 07:15:57;;;;;;;5.70;1.63;;;;;;;22.48;28.39;101109.47;5027315;28;20083;-74
2021/05/08 07:18:24;;;;;;;7.43;1.73;;;;;;;21.54;29.04;101113.56;5004705;28;20149;-74
2021/05/08 07:20:53;;;;;;;5.05;1.80;;;;;;;21.00;30.22;101113.34;5016243;28;20053;-73
2021/05/08 07:23:20;;;;;;;5.95;1.90;;;;;;;23.32;27.65;101123.25;5022627;28;20469;-73
2021/05/08 07:25:50;;;;;;;6.80;1.92;;;;;;;23.75;26.17;101115.03;5018696;28;20160;-75
2021/05/08 07:28:25;;;;;;;7.60;1.75;;;;;;;23.87;25.34;101118.28;4989867;28;20058;-72
2021/05/08 07:30:56;;;;;;;7.45;1.85;;;;;;;23.37;26.11;101123.59;5021198;28;20072;-74
2021/05/08 07:33:23;;;;;;;10.43;2.10;;;;;;;22.74;26.52;101114.88;4986385;28;20256;-82
2021/05/08 07:35:51;;;;;;;6.47;1.83;;;;;;;21.54;28.07;101127.78;5044278;28;20685;-81
2021/05/08 07:38:18;;;;;;;5.28;2.15;;;;;;;20.10;30.65;101122.56;5037217;28;20093;-80
2021/05/08 07:40:50;;;;;;;7.20;1.95;;;;;;;20.51;29.53;101122.47;5038077;28;20099;-79
2021/05/08 07:43:20;;;;;;;7.32;2.03;;;;;;;21.05;28.58;101120.94;5032174;28;20085;-77
2021/05/08 07:45:48;;;;;;;9.30;2.53;;;;;;;22.63;26.89;101108.91;5000110;28;20073;-82
2021/05/08 07:48:15;;;;;;;7.28;2.05;;;;;;;22.84;26.08;101116.59;4985643;28;20148;-84
2021/05/08 07:50:44;;;;;;;6.20;2.10;;;;;;;20.91;28.63;101117.72;5017889;28;20049;-83
2021/05/08 07:53:11;;;;;;;7.10;2.15;;;;;;;19.73;30.81;101120.56;5005468;28;20056;-82
2021/05/08 07:55:38;;;;;;;7.15;1.92;;;;;;;20.36;29.92;101114.84;5015523;28;20064;-83
2021/05/08 07:58:08;;;;;;;5.60;2.33;;;;;;;21.12;29.51;101120.19;5007407;28;20050;-83
2021/05/08 08:00:35;;;;;;;5.70;1.80;;;;;;;21.41;28.70;101121.94;5006564;28;20053;-83
2021/05/08 08:03:02;;;;;;;4.50;1.52;;;;;;;22.32;28.22;101121.91;5021740;28;20050;-76
2021/05/08 08:05:42;;;;;;;5.40;1.45;;;;;;;23.61;26.00;101118.34;5010989;28;20109;-81
2021/05/08 08:08:09;;;;;;;7.07;1.90;;;;;;;23.83;25.56;101114.22;5024624;28;20070;-82
2021/05/08 08:10:36;;;;;;;9.05;1.48;;;;;;;24.63;24.71;101119.00;5024701;28;20042;-81
2021/05/08 08:13:03;;;;;;;4.43;1.75;;;;;;;22.02;26.88;101123.09;5013080;28;20033;-82
2021/05/08 08:15:29;;;;;;;7.93;1.85;;;;;;;20.17;29.49;101126.41;5052690;28;20464;-82
2021/05/08 08:17:56;;;;;;;7.53;2.05;;;;;;;21.36;28.11;101129.56;5026058;28;20054;-82
2021/05/08 08:20:23;;;;;;;5.95;1.70;;;;;;;22.42;27.06;101128.84;5024872;28;20049;-83
2021/05/08 08:22:50;;;;;;;5.00;2.17;;;;;;;21.51;28.09;101129.91;5021939;28;20140;-81
2021/05/08 08:25:16;;;;;;;8.25;1.83;;;;;;;22.64;27.14;101122.16;5021230;28;20542;-80
2021/05/08 08:27:43;;;;;;;9.13;1.95;;;;;;;21.54;28.42;101130.47;5038952;28;20121;-83
2021/05/08 08:30:12;;;;;;;7.20;2.25;;;;;;;20.56;28.00;101134.41;5020406;28;20065;-81
2021/05/08 08:32:39;;;;;;;7.63;2.47;;;;;;;18.70;31.75;101134.00;5025307;28;20055;-82
2021/05/08 08:35:07;;;;;;;5.43;2.15;;;;;;;16.49;35.09;101139.31;4996014;28;20067;-83
2021/05/08 08:37:33;;;;;;;9.25;2.22;;;;;;;15.94;36.74;101132.78;5034386;28;20077;-82
2021/05/08 08:40:00;;;;;;;4.03;2.08;;;;;;;15.66;37.26;101139.22;5027036;28;20057;-81
2021/05/08 08:42:27;;;;;;;6.95;2.63;;;;;;;15.26;37.62;101141.19;5022626;28;20087;-82
2021/05/08 08:44:57;;;;;;;6.13;3.03;;;;;;;14.56;36.36;101138.94;5010455;28;20053;-80
2021/05/08 08:47:31;;;;;;;6.25;2.78;;;;;;;14.51;38.10;101133.97;4996479;28;20208;-82
2021/05/08 08:50:06;;;;;;;6.28;2.67;;;;;;;15.43;37.68;101140.84;5030682;28;20114;-82
2021/05/08 08:52:33;;;;;;;8.05;2.55;;;;;;;15.50;36.40;101136.81;5000736;28;20059;-82
2021/05/08 08:55:00;;;;;;;4.65;2.53;;;;;;;14.92;37.64;101141.75;4986021;28;20132;-82
2021/05/08 08:57:36;;;;;;;6.40;2.33;;;;;;;14.56;38.08;101145.09;4985830;28;20993;-83
2021/05/08 09:00:05;;;;;;;;;;;;;;;14.54;38.12;101144.34;4993048;28;20081;-83
2021/05/08 09:02:31;;;;;;;7.97;2.35;;;;;;;13.99;37.46;101134.72;5002823;28;20034;-80
2021/05/08 09:04:59;;;;;;;4.57;2.15;;;;;;;13.97;37.43;101133.13;5009104;28;20081;-82
2021/05/08 09:07:28;;;;;;;5.50;2.22;;;;;;;13.93;38.49;101138.63;5009662;28;20087;-83
2021/05/08 09:09:58;;;;;;;4.43;1.80;;;;;;;14.46;36.45;101137.84;5005953;28;20057;-80
2021/05/08 09:12:30;;;;;;;4.90;1.80;;;;;;;14.61;36.60;101134.19;5006175;28;20149;-80
2021/05/08 09:14:57;;;;;;;5.18;1.80;;;;;;;13.88;38.31;101131.94;5012882;28;20057;-82
2021/05/08 09:17:27;;;;;;;7.80;2.50;;;;;;;13.74;38.71;101134.63;5009457;28;20061;-83
2021/05/08 09:19:58;;;;;;;3.60;1.75;;;;;;;14.33;36.83;101125.41;4998549;28;20073;-82
2021/05/08 09:22:24;;;;;;;10.15;1.90;;;;;;;14.40;37.30;101134.63;5013956;28;20157;-77
2021/05/08 09:25:14;;;;;;;6.72;2.10;;;;;;;14.37;37.55;101132.22;4996734;28;20052;-75
2021/05/08 09:27:44;;;;;;;11.45;2.50;;;;;;;14.10;38.35;101129.59;5016663;28;20067;-79
2021/05/08 09:30:11;;;;;;;4.70;2.13;;;;;;;14.07;37.64;101134.22;5015451;28;20054;-77
2021/05/08 09:32:49;;;;;;;5.75;1.70;;;;;;;14.54;37.11;101131.09;5013650;28;20542;-76
2021/05/08 09:35:25;;;;;;;6.57;2.33;;;;;;;14.96;37.02;101133.59;4989859;28;20053;-78
2021/05/08 09:38:05;;;;;;;6.85;1.85;;;;;;;14.18;38.05;101135.22;5007197;28;20610;-78
2021/05/08 09:40:37;;;;;;;5.03;2.70;;;;;;;13.79;39.03;101132.53;5018747;28;20128;-80
2021/05/08 09:43:11;;;;;;;5.53;2.17;;;;;;;12.44;41.46;101135.47;5016361;28;20064;-82
2021/05/08 09:45:40;;;;;;;6.78;2.40;;;;;;;12.99;41.96;101134.81;4997832;28;20053;-79
2021/05/08 09:48:36;;;;;;;11.15;2.85;;;;;;;13.97;40.05;101136.63;5000838;28;20057;-77
2021/05/08 09:51:22;;;;;;;5.72;2.45;;;;;;;13.79;40.00;101128.06;5003754;28;20571;-79
2021/05/08 09:54:03;;;;;;;4.65;1.80;;;;;;;13.78;40.00;101125.50;5002212;28;20148;-78
2021/05/08 09:56:37;;;;;;;3.25;1.70;;;;;;;14.65;37.92;101117.97;5026086;28;20049;-81
2021/05/08 09:59:24;;;;;;;9.73;2.92;;;;;;;14.61;38.42;101116.47;5004666;28;20190;-79
2021/05/08 10:02:14;;;;;;;4.90;2.25;;;;;;;14.25;38.17;101116.28;5023039;28;20063;-82
2021/05/08 10:04:58;;;;;;;4.72;1.80;;;;;;;14.06;38.71;101114.84;5011463;28;20109;-77
2021/05/08 10:07:28;;;;;;;5.20;1.65;;;;;;;13.87;38.56;101112.56;5019509;28;20163;-80
2021/05/08 10:09:57;;;;;;;4.28;1.63;;;;;;;14.19;38.52;101114.88;5019923;28;20042;-79
2021/05/08 10:12:26;;;;;;;8.38;2.08;;;;;;;14.14;39.36;101109.91;5006423;28;20081;-77
2021/05/08 10:14:57;;;;;;;3.72;1.85;;;;;;;14.08;39.12;101110.28;4998892;28;20061;-81
2021/05/08 10:17:26;;;;;;;3.90;1.95;;;;;;;14.41;37.23;101109.88;5020084;28;20125;-81
2021/05/08 10:20:05;;;;;;;6.55;1.95;;;;;;;14.30;37.55;101096.47;5010613;28;20048;-81
2021/05/08 10:22:41;;;;;;;4.07;1.70;;;;;;;14.44;36.86;101099.03;5029399;28;20128;-73
2021/05/08 10:25:08;;;;;;;;;;;;;;;14.43;36.88;101099.16;4996063;28;21059;-73
2021/05/08 10:27:34;;;;;;;5.03;1.85;;;;;;;14.32;36.70;101091.06;5002502;28;20004;-74
2021/05/08 10:30:04;;;;;;;7.22;1.77;;;;;;;13.95;37.75;101096.16;4985891;28;20160;-74
2021/05/08 10:32:30;;;;;;;4.95;2.25;;;;;;;14.48;36.97;101097.06;5018138;28;20092;-74
2021/05/08 10:34:59;;;;;;;12.70;6.22;;;;;;;13.87;38.31;101094.03;4990218;28;20519;-75
2021/05/08 10:37:27;;;;;;;6.35;2.72;;;;;;;13.62;38.61;101102.69;5020622;28;20060;-76
2021/05/08 10:40:09;;;;;;;5.55;2.65;;;;;;;13.69;39.24;101105.81;5022159;28;20140;-75
2021/05/08 10:42:41;;;;;;;4.57;2.40;;;;;;;14.04;38.09;101100.84;4999165;28;20136;-76
2021/05/08 10:45:20;;;;;;;3.35;2.40;;;;;;;14.14;37.37;101099.31;5017757;28;21118;-73
2021/05/08 10:47:58;;;;;;;3.33;2.08;;;;;;;13.98;37.86;101098.63;5021986;28;20140;-75
2021/05/08 10:50:34;;;;;;;5.63;2.65;;;;;;;13.47;38.53;101101.03;5006817;28;20648;-72
2021/05/08 10:53:11;;;;;;;6.65;2.80;;;;;;;13.98;38.40;101105.72;5000582;28;20083;-72
2021/05/08 10:55:42;;;;;;;4.13;2.38;;;;;;;14.52;37.55;101095.06;5016643;28;20766;-75
2021/05/08 10:58:19;;;;;;;8.25;2.78;;;;;;;14.84;36.77;101088.41;4999327;28;20743;-77
2021/05/08 11:00:52;;;;;;;4.90;2.90;;;;;;;14.34;37.51;101087.38;5005248;28;20784;-76
2021/05/08 11:03:21;;;;;;;6.72;2.55;;;;;;;14.66;36.38;101077.25;5002525;28;20536;-78
2021/05/08 11:05:54;;;;;;;7.22;2.63;;;;;;;14.76;37.10;101084.56;5021909;28;20065;-77
2021/05/08 11:08:24;;;;;;;5.30;2.92;;;;;;;14.87;36.70;101084.69;5014665;28;20211;-75
2021/05/08 11:10:53;;;;;;;5.55;2.95;;;;;;;14.47;37.28;101087.41;5018571;28;20056;-76
2021/05/08 11:13:21;;;;;;;3.97;2.38;;;;;;;15.05;36.73;101086.06;5019625;28;20077;-76
2021/05/08 11:16:02;;;;;;;6.28;2.60;;;;;;;15.28;35.77;101078.28;5017510;28;20057;-76
2021/05/08 11:18:36;;;;;;;6.43;2.60;;;;;;;15.42;35.85;101071.03;5013746;28;20145;-75
2021/05/08 11:21:13;;;;;;;4.15;2.30;;;;;;;15.70;35.60;101061.91;5023824;28;20053;-76
2021/05/08 11:23:49;;;;;;;5.35;2.40;;;;;;;14.59;36.75;101064.53;5049184;22;20152;-75
2021/05/08 11:26:28;;;;;;;6.45;3.33;;;;;;;14.34;36.78;101063.53;4994586;28;20084;-74
2021/05/08 11:28:57;;;;;;;9.15;2.58;;;;;;;14.63;36.39;101069.53;5004048;28;20057;-73
2021/05/08 11:31:39;;;;;;;3.75;2.45;;;;;;;15.15;34.91;101054.44;5011591;28;20076;-74
2021/05/08 11:34:13;;;;;;;2.05;1.75;;;;;;;14.91;33.69;101057.03;5029273;28;20054;-74
2021/05/08 11:37:07;;;;;;;9.18;2.22;;;;;;;15.19;34.64;101050.59;5043721;28;20068;-75